createdAt,value
2022-09-16T00:00:03.361Z,12.10
2022-09-16T00:01:03.410Z,12.00
2022-09-16T00:02:03.368Z,11.90
2022-09-16T00:03:03.308Z,11.90
2022-09-16T00:04:03.300Z,11.60
2022-09-16T00:05:03.310Z,11.80
2022-09-16T00:06:03.280Z,11.40
2022-09-16T00:07:03.269Z,11.80
2022-09-16T00:08:03.261Z,11.80
2022-09-16T00:09:03.246Z,11.70
2022-09-16T00:10:03.222Z,12.10
2022-09-16T00:11:03.210Z,11.50
2022-09-16T00:12:03.179Z,11.30
2022-09-16T00:13:03.189Z,11.30
2022-09-16T00:14:03.177Z,11.20
2022-09-16T00:15:03.157Z,11.40
2022-09-16T00:16:03.165Z,11.40
2022-09-16T00:17:03.126Z,12.00
2022-09-16T00:18:03.108Z,11.70
2022-09-16T00:19:03.110Z,11.60
2022-09-16T00:20:03.110Z,11.70
2022-09-16T00:21:03.102Z,12.00
2022-09-16T00:22:03.070Z,11.90
2022-09-16T00:23:03.780Z,11.50
2022-09-16T00:24:03.062Z,11.70
2022-09-16T00:25:03.045Z,11.60
2022-09-16T00:26:03.030Z,11.70
2022-09-16T00:27:03.058Z,11.50
2022-09-16T00:28:02.980Z,11.40
2022-09-16T00:29:02.969Z,11.90
2022-09-16T00:30:02.970Z,12.30
2022-09-16T00:31:03.001Z,12.30
2022-09-16T00:32:02.932Z,12.50
2022-09-16T00:33:02.961Z,11.70
2022-09-16T00:34:02.909Z,12.20
2022-09-16T00:35:02.900Z,12.20
2022-09-16T00:36:02.902Z,11.80
2022-09-16T00:37:02.871Z,11.90
2022-09-16T00:38:02.881Z,11.80
2022-09-16T00:39:02.853Z,11.70
2022-09-16T00:40:02.888Z,11.80
2022-09-16T00:41:02.832Z,12.50
2022-09-16T00:42:09.844Z,11.40
2022-09-16T00:43:02.795Z,11.90
2022-09-16T00:44:02.775Z,11.90
2022-09-16T00:45:02.765Z,12.10
2022-09-16T00:46:02.745Z,11.50
2022-09-16T00:49:24.851Z,11.50
2022-09-16T00:50:24.814Z,11.30
2022-09-16T00:51:24.855Z,11.80
2022-09-16T00:52:24.794Z,11.80
2022-09-16T00:53:24.822Z,11.50
2022-09-16T00:54:24.813Z,12.30
2022-09-16T00:55:24.758Z,11.40
2022-09-16T00:56:24.732Z,11.90
2022-09-16T00:57:24.731Z,11.90
2022-09-16T00:58:24.720Z,12.20
2022-09-16T00:59:24.786Z,12.50
2022-09-16T01:00:24.723Z,12.30
2022-09-16T01:01:24.671Z,11.90
2022-09-16T01:02:24.742Z,12.90
2022-09-16T01:03:24.645Z,12.20
2022-09-16T01:04:24.701Z,12.00
2022-09-16T01:05:24.624Z,12.10
2022-09-16T01:06:24.613Z,11.50
2022-09-16T01:07:24.603Z,12.00
2022-09-16T01:08:24.584Z,12.30
2022-09-16T01:09:24.573Z,11.90
2022-09-16T01:10:24.576Z,11.90
2022-09-16T01:11:24.551Z,13.00
2022-09-16T01:12:24.543Z,12.20
2022-09-16T01:13:24.512Z,12.40
2022-09-16T01:14:24.495Z,11.60
2022-09-16T01:15:24.491Z,11.80
2022-09-16T01:16:24.527Z,11.60
2022-09-16T01:17:24.519Z,11.50
2022-09-16T01:18:24.443Z,11.70
2022-09-16T01:19:24.433Z,11.60
2022-09-16T01:20:24.422Z,11.80
2022-09-16T01:21:24.414Z,11.60
2022-09-16T01:22:24.396Z,12.00
2022-09-16T01:23:24.384Z,11.60
2022-09-16T01:24:24.380Z,12.00
2022-09-16T01:25:24.386Z,12.70
2022-09-16T01:26:24.359Z,12.20
2022-09-16T01:27:24.339Z,11.70
2022-09-16T01:28:24.337Z,11.80
2022-09-16T01:29:24.301Z,12.30
2022-09-16T01:30:24.293Z,12.50
2022-09-16T01:31:24.332Z,12.30
2022-09-16T01:32:24.273Z,12.50
2022-09-16T01:33:24.254Z,12.30
2022-09-16T01:34:24.237Z,12.30
2022-09-16T01:35:24.225Z,13.10
2022-09-16T01:36:24.224Z,12.20
2022-09-16T01:37:24.215Z,12.10
2022-09-16T01:38:24.174Z,12.60
2022-09-16T01:39:24.173Z,12.30
2022-09-16T01:40:24.254Z,12.30
2022-09-16T01:41:24.133Z,12.30
2022-09-16T01:42:24.142Z,12.50
2022-09-16T01:43:24.104Z,12.60
2022-09-16T01:44:24.103Z,12.30
2022-09-16T01:45:24.106Z,12.20
2022-09-16T01:46:24.116Z,12.50
2022-09-16T01:47:24.143Z,12.40
2022-09-16T01:48:24.048Z,12.50
2022-09-16T01:49:24.048Z,12.50
2022-09-16T01:50:24.024Z,12.80
2022-09-16T01:51:24.005Z,12.90
2022-09-16T01:52:23.995Z,12.70
2022-09-16T01:53:23.984Z,12.20
2022-09-16T01:54:23.982Z,12.70
2022-09-16T01:55:23.963Z,12.30
2022-09-16T01:56:23.942Z,12.40
2022-09-16T01:57:23.932Z,12.60
2022-09-16T01:58:23.913Z,12.60
2022-09-16T01:59:23.901Z,12.50
2022-09-16T02:00:23.901Z,12.90
2022-09-16T02:01:23.916Z,12.50
2022-09-16T02:02:24.008Z,13.10
2022-09-16T02:03:23.847Z,13.10
2022-09-16T02:04:23.850Z,12.50
2022-09-16T02:05:23.876Z,12.50
2022-09-16T02:06:23.816Z,12.30
2022-09-16T02:07:23.805Z,12.40
2022-09-16T02:08:23.786Z,12.70
2022-09-16T02:09:23.755Z,12.90
2022-09-16T02:10:23.774Z,13.80
2022-09-16T02:11:23.745Z,13.40
2022-09-16T02:12:23.733Z,12.90
2022-09-16T02:13:23.715Z,13.70
2022-09-16T02:14:23.707Z,13.20
2022-09-16T02:15:23.726Z,12.60
2022-09-16T02:16:23.758Z,13.30
2022-09-16T02:17:23.666Z,13.10
2022-09-16T02:18:23.659Z,13.50
2022-09-16T02:19:23.646Z,12.90
2022-09-16T02:20:23.636Z,13.50
2022-09-16T02:21:23.647Z,13.30
2022-09-16T02:22:23.619Z,13.80
2022-09-16T02:23:23.607Z,13.40
2022-09-16T02:24:23.588Z,13.70
2022-09-16T02:25:23.554Z,14.90
2022-09-16T02:26:23.554Z,13.50
2022-09-16T02:27:23.526Z,13.30
2022-09-16T02:28:23.515Z,13.50
2022-09-16T02:29:23.496Z,13.50
2022-09-16T02:30:23.527Z,13.00
2022-09-16T02:31:23.504Z,13.20
2022-09-16T02:32:23.491Z,13.20
2022-09-16T02:33:23.458Z,13.30
2022-09-16T02:34:23.457Z,13.60
2022-09-16T02:35:23.436Z,13.60
2022-09-16T02:36:23.438Z,13.90
2022-09-16T02:37:23.396Z,13.80
2022-09-16T02:38:23.386Z,14.00
2022-09-16T02:39:23.375Z,13.80
2022-09-16T02:40:23.479Z,13.40
2022-09-16T02:41:23.358Z,13.00
2022-09-16T02:42:23.347Z,14.90
2022-09-16T02:43:23.328Z,13.40
2022-09-16T02:44:23.341Z,13.10
2022-09-16T02:45:23.307Z,13.60
2022-09-16T02:46:23.317Z,13.40
2022-09-16T02:47:23.297Z,14.00
2022-09-16T02:48:23.269Z,13.40
2022-09-16T02:49:23.255Z,13.50
2022-09-16T02:50:23.227Z,13.40
2022-09-16T02:51:23.235Z,13.40
2022-09-16T02:52:23.217Z,13.70
2022-09-16T02:53:23.185Z,13.20
2022-09-16T02:54:23.177Z,14.10
2022-09-16T02:55:23.159Z,13.80
2022-09-16T02:56:23.154Z,13.40
2022-09-16T02:57:23.153Z,13.20
2022-09-16T02:58:23.191Z,13.60
2022-09-16T02:59:23.118Z,13.20
2022-09-16T03:00:23.959Z,13.40
2022-09-16T03:01:23.155Z,13.70
2022-09-16T03:02:23.185Z,13.60
2022-09-16T03:03:23.074Z,13.50
2022-09-16T03:04:23.060Z,13.50
2022-09-16T03:05:23.026Z,13.40
2022-09-16T03:06:23.019Z,13.80
2022-09-16T03:07:23.021Z,13.90
2022-09-16T03:08:23.006Z,13.50
2022-09-16T03:09:22.979Z,13.90
2022-09-16T03:10:22.987Z,13.70
2022-09-16T03:11:25.797Z,13.80
2022-09-16T03:12:23.946Z,13.90
2022-09-16T03:13:22.936Z,14.10
2022-09-16T03:14:22.927Z,15.30
2022-09-16T03:15:22.919Z,13.90
2022-09-16T03:16:22.962Z,14.40
2022-09-16T03:17:22.877Z,13.90
2022-09-16T03:18:22.869Z,13.40
2022-09-16T03:19:22.857Z,13.70
2022-09-16T03:20:22.861Z,13.50
2022-09-16T03:21:22.848Z,13.90
2022-09-16T03:22:22.808Z,14.20
2022-09-16T03:23:22.798Z,14.40
2022-09-16T03:24:22.788Z,13.50
2022-09-16T03:25:22.777Z,14.40
2022-09-16T03:26:22.789Z,13.80
2022-09-16T03:27:22.777Z,13.70
2022-09-16T03:28:22.858Z,13.90
2022-09-16T03:29:22.721Z,13.50
2022-09-16T03:30:22.710Z,13.50
2022-09-16T03:31:22.778Z,14.00
2022-09-16T03:32:22.700Z,13.80
2022-09-16T03:33:22.668Z,14.30
2022-09-16T03:34:22.659Z,13.80
2022-09-16T03:35:22.641Z,13.70
2022-09-16T03:36:22.629Z,14.70
2022-09-16T03:37:22.626Z,14.10
2022-09-16T03:38:22.617Z,13.90
2022-09-16T03:39:22.598Z,13.50
2022-09-16T03:40:23.258Z,14.40
2022-09-16T03:41:22.579Z,14.50
2022-09-16T03:42:22.563Z,13.40
2022-09-16T03:43:22.557Z,13.70
2022-09-16T03:44:22.530Z,13.60
2022-09-16T03:45:22.511Z,14.00
2022-09-16T03:46:22.539Z,13.50
2022-09-16T03:47:22.487Z,13.40
2022-09-16T03:48:22.486Z,14.20
2022-09-16T03:49:22.472Z,13.70
2022-09-16T03:50:22.453Z,13.50
2022-09-16T03:51:22.431Z,13.30
2022-09-16T03:52:22.419Z,13.90
2022-09-16T03:53:22.423Z,13.90
2022-09-16T03:54:22.469Z,14.50
2022-09-16T03:55:22.400Z,13.80
2022-09-16T03:56:22.428Z,14.10
2022-09-16T03:57:22.369Z,14.10
2022-09-16T03:58:22.356Z,13.80
2022-09-16T03:59:22.331Z,14.70
2022-09-16T04:00:22.371Z,14.30
2022-09-16T04:01:22.364Z,13.70
2022-09-16T04:02:22.335Z,13.90
2022-09-16T04:03:22.277Z,14.10
2022-09-16T04:04:22.263Z,13.90
2022-09-16T04:05:22.243Z,14.30
2022-09-16T04:06:22.242Z,13.60
2022-09-16T04:07:22.220Z,14.30
2022-09-16T04:08:22.212Z,13.80
2022-09-16T04:09:22.201Z,13.60
2022-09-16T04:10:22.191Z,13.70
2022-09-16T04:11:22.183Z,13.90
2022-09-16T04:12:22.163Z,13.50
2022-09-16T04:13:22.201Z,13.60
2022-09-16T04:14:22.161Z,13.80
2022-09-16T04:15:22.120Z,13.30
2022-09-16T04:16:22.169Z,13.90
2022-09-16T04:17:22.117Z,14.50
2022-09-16T04:18:22.111Z,14.70
2022-09-16T04:19:22.081Z,14.00
2022-09-16T04:20:22.060Z,14.00
2022-09-16T04:21:22.031Z,13.90
2022-09-16T04:22:22.031Z,14.30
2022-09-16T04:23:22.012Z,13.60
2022-09-16T04:24:22.015Z,14.00
2022-09-16T04:25:22.001Z,13.60
2022-09-16T04:26:21.981Z,13.40
2022-09-16T04:27:21.961Z,13.60
2022-09-16T04:28:21.951Z,13.40
2022-09-16T04:29:21.932Z,13.30
2022-09-16T04:30:21.934Z,13.70
2022-09-16T04:31:21.941Z,13.70
2022-09-16T04:32:21.901Z,13.70
2022-09-16T04:33:21.888Z,13.80
2022-09-16T04:34:21.889Z,14.50
2022-09-16T04:35:21.861Z,13.50
2022-09-16T04:36:21.847Z,13.70
2022-09-16T04:37:21.845Z,13.70
2022-09-16T04:38:21.821Z,14.40
2022-09-16T04:39:21.821Z,14.30
2022-09-16T04:40:21.827Z,13.50
2022-09-16T04:41:21.782Z,13.80
2022-09-16T04:42:21.764Z,13.70
2022-09-16T04:43:21.760Z,13.70
2022-09-16T04:44:21.743Z,13.60
2022-09-16T04:45:21.733Z,13.80
2022-09-16T04:46:21.773Z,13.90
2022-09-16T04:47:21.730Z,14.90
2022-09-16T04:48:21.693Z,14.10
2022-09-16T04:49:21.681Z,13.60
2022-09-16T04:50:21.651Z,13.90
2022-09-16T04:51:21.642Z,13.80
2022-09-16T04:52:21.622Z,13.70
2022-09-16T04:53:21.611Z,13.70
2022-09-16T04:54:21.614Z,13.00
2022-09-16T04:55:21.592Z,13.60
2022-09-16T04:56:21.573Z,13.60
2022-09-16T04:57:21.576Z,14.40
2022-09-16T04:58:21.568Z,13.70
2022-09-16T04:59:21.552Z,13.30
2022-09-16T05:00:21.569Z,14.10
2022-09-16T05:01:21.561Z,14.00
2022-09-16T05:02:21.504Z,13.90
2022-09-16T05:03:21.596Z,14.00
2022-09-16T05:04:21.484Z,14.50
2022-09-16T05:05:21.461Z,13.90
2022-09-16T05:06:21.578Z,13.30
2022-09-16T05:07:21.452Z,13.70
2022-09-16T05:08:21.420Z,13.00
2022-09-16T05:09:21.416Z,14.30
2022-09-16T05:10:21.394Z,13.10
2022-09-16T05:11:21.372Z,13.50
2022-09-16T05:12:21.372Z,13.80
2022-09-16T05:13:21.365Z,13.60
2022-09-16T05:14:21.344Z,13.50
2022-09-16T05:15:21.342Z,13.10
2022-09-16T05:16:21.361Z,13.70
2022-09-16T05:17:46.453Z,13.70
2022-09-16T05:18:22.304Z,13.60
2022-09-16T05:19:21.285Z,14.00
2022-09-16T05:20:21.264Z,13.30
2022-09-16T05:21:21.252Z,13.60
2022-09-16T05:22:21.252Z,13.50
2022-09-16T05:23:21.231Z,13.70
2022-09-16T05:24:21.212Z,13.90
2022-09-16T05:25:21.203Z,14.00
2022-09-16T05:26:21.193Z,13.80
2022-09-16T05:27:21.173Z,13.50
2022-09-16T05:28:21.204Z,13.60
2022-09-16T05:29:21.147Z,14.70
2022-09-16T05:30:25.779Z,13.10
2022-09-16T05:31:22.258Z,14.20
2022-09-16T05:32:21.118Z,13.40
2022-09-16T05:33:21.113Z,13.10
2022-09-16T05:34:21.101Z,13.10
2022-09-16T05:35:21.085Z,13.40
2022-09-16T05:36:21.056Z,13.20
2022-09-16T05:37:21.085Z,13.40
2022-09-16T05:38:21.158Z,13.40
2022-09-16T05:39:23.661Z,13.20
2022-09-16T05:40:21.106Z,13.70
2022-09-16T05:41:20.994Z,13.90
2022-09-16T05:42:20.974Z,13.30
2022-09-16T05:43:20.962Z,13.90
2022-09-16T05:44:20.963Z,13.80
2022-09-16T05:45:25.652Z,13.80
2022-09-16T05:46:21.967Z,14.50
2022-09-16T05:47:20.917Z,14.50
2022-09-16T05:48:20.895Z,14.60
2022-09-16T05:49:21.352Z,13.50
2022-09-16T05:50:20.876Z,13.70
2022-09-16T05:51:20.875Z,13.20
2022-09-16T05:52:20.845Z,13.80
2022-09-16T05:53:20.867Z,13.60
2022-09-16T05:54:20.835Z,14.30
2022-09-16T05:55:20.827Z,13.80
2022-09-16T05:56:20.817Z,13.70
2022-09-16T05:57:20.786Z,13.00
2022-09-16T05:58:20.777Z,12.90
2022-09-16T05:59:20.762Z,13.30
2022-09-16T06:00:20.776Z,14.30
2022-09-16T06:01:20.759Z,13.90
2022-09-16T06:02:20.738Z,14.20
2022-09-16T06:03:20.725Z,13.90
2022-09-16T06:04:20.688Z,13.90
2022-09-16T06:05:20.685Z,13.70
2022-09-16T06:06:20.646Z,13.50
2022-09-16T06:07:20.656Z,13.70
2022-09-16T06:08:20.645Z,13.70
2022-09-16T06:09:20.673Z,13.90
2022-09-16T06:10:20.615Z,13.60
2022-09-16T06:11:20.615Z,13.60
2022-09-16T06:12:20.597Z,13.30
2022-09-16T06:13:20.606Z,13.50
2022-09-16T06:14:20.556Z,13.70
2022-09-16T06:15:20.549Z,13.50
2022-09-16T06:16:20.592Z,13.90
2022-09-16T06:17:20.556Z,13.60
2022-09-16T06:18:20.566Z,13.00
2022-09-16T06:19:20.510Z,14.40
2022-09-16T06:20:20.511Z,12.80
2022-09-16T06:21:20.487Z,12.90
2022-09-16T06:22:20.457Z,13.60
2022-09-16T06:23:20.456Z,12.90
2022-09-16T06:24:20.426Z,14.00
2022-09-16T06:25:20.408Z,13.60
2022-09-16T06:26:20.398Z,13.10
2022-09-16T06:27:20.389Z,12.70
2022-09-16T06:28:20.378Z,13.90
2022-09-16T06:29:20.372Z,13.20
2022-09-16T06:30:20.389Z,12.90
2022-09-16T06:31:20.382Z,13.10
2022-09-16T06:32:20.310Z,13.40
2022-09-16T06:33:20.321Z,13.40
2022-09-16T06:34:20.335Z,14.20
2022-09-16T06:35:20.277Z,13.20
2022-09-16T06:36:20.257Z,13.30
2022-09-16T06:37:20.250Z,13.30
2022-09-16T06:38:20.252Z,13.40
2022-09-16T06:39:20.226Z,13.00
2022-09-16T06:40:20.290Z,12.60
2022-09-16T06:41:20.247Z,12.60
2022-09-16T06:42:27.215Z,12.70
2022-09-16T06:43:20.181Z,13.40
2022-09-16T06:44:20.223Z,13.40
2022-09-16T06:45:20.154Z,13.10
2022-09-16T06:46:20.158Z,12.70
2022-09-16T06:47:20.131Z,12.50
2022-09-16T06:48:20.112Z,12.60
2022-09-16T06:49:20.141Z,12.60
2022-09-16T06:50:20.083Z,12.80
2022-09-16T06:51:20.065Z,13.00
2022-09-16T06:52:20.058Z,12.80
2022-09-16T06:53:20.045Z,12.90
2022-09-16T06:54:20.114Z,12.60
2022-09-16T06:55:20.033Z,12.50
2022-09-16T06:56:20.003Z,12.50
2022-09-16T06:57:19.992Z,12.60
2022-09-16T06:58:19.982Z,12.50
2022-09-16T06:59:20.004Z,12.70
2022-09-16T07:00:19.954Z,12.80
2022-09-16T07:01:20.004Z,12.30
2022-09-16T07:02:19.977Z,12.60
2022-09-16T07:03:19.936Z,12.70
2022-09-16T07:04:19.908Z,12.30
2022-09-16T07:05:19.907Z,12.40
2022-09-16T07:06:19.875Z,12.80
2022-09-16T07:07:21.326Z,12.60
2022-09-16T07:08:19.875Z,12.10
2022-09-16T07:09:19.845Z,12.70
2022-09-16T07:10:19.873Z,13.20
2022-09-16T07:11:19.813Z,12.60
2022-09-16T07:12:19.927Z,12.40
2022-09-16T07:13:19.784Z,12.30
2022-09-16T07:14:19.770Z,12.60
2022-09-16T07:15:19.764Z,12.30
2022-09-16T07:16:19.881Z,12.20
2022-09-16T07:17:19.737Z,12.60
2022-09-16T07:18:19.714Z,12.00
2022-09-16T07:19:19.797Z,12.30
2022-09-16T07:20:19.700Z,11.90
2022-09-16T07:21:19.676Z,12.00
2022-09-16T07:22:19.665Z,11.80
2022-09-16T07:23:19.658Z,12.10
2022-09-16T07:24:19.669Z,12.10
2022-09-16T07:25:19.677Z,11.80
2022-09-16T07:26:19.615Z,11.80
2022-09-16T07:27:19.726Z,11.50
2022-09-16T07:28:19.595Z,11.50
2022-09-16T07:29:19.686Z,11.40
2022-09-16T07:30:19.566Z,11.40
2022-09-16T07:31:19.567Z,11.10
2022-09-16T07:32:19.517Z,11.50
2022-09-16T07:33:19.523Z,11.80
2022-09-16T07:34:19.506Z,11.70
2022-09-16T07:35:19.498Z,11.80
2022-09-16T07:36:19.497Z,11.30
2022-09-16T07:37:19.581Z,11.10
2022-09-16T07:38:19.458Z,11.20
2022-09-16T07:39:19.440Z,10.90
2022-09-16T07:40:19.486Z,11.50
2022-09-16T07:41:19.498Z,11.10
2022-09-16T07:42:19.409Z,10.60
2022-09-16T07:43:19.377Z,10.60
2022-09-16T07:44:19.428Z,10.90
2022-09-16T07:45:19.347Z,10.90
2022-09-16T07:46:19.424Z,11.70
2022-09-16T07:47:22.266Z,10.70
2022-09-16T07:48:19.349Z,11.00
2022-09-16T07:49:19.300Z,10.90
2022-09-16T07:50:19.287Z,11.20
2022-09-16T07:51:19.283Z,10.90
2022-09-16T07:52:19.273Z,10.90
2022-09-16T07:53:19.274Z,10.60
2022-09-16T07:54:19.259Z,10.80
2022-09-16T07:55:19.768Z,11.30
2022-09-16T07:56:19.243Z,11.70
2022-09-16T07:57:19.208Z,11.00
2022-09-16T07:58:19.208Z,11.60
2022-09-16T07:59:19.515Z,11.60
2022-09-16T08:00:19.176Z,11.50
2022-09-16T08:01:19.261Z,11.00
2022-09-16T08:02:19.163Z,10.70
2022-09-16T08:03:19.127Z,10.70
2022-09-16T08:04:19.121Z,10.80
2022-09-16T08:05:19.111Z,10.70
2022-09-16T08:06:19.090Z,10.70
2022-09-16T08:07:19.071Z,10.30
2022-09-16T08:08:19.068Z,10.50
2022-09-16T08:09:41.241Z,10.30
2022-09-16T08:10:20.048Z,10.20
2022-09-16T08:11:19.020Z,9.80
2022-09-16T08:12:19.032Z,11.10
2022-09-16T08:13:18.993Z,10.40
2022-09-16T08:14:19.037Z,10.10
2022-09-16T08:16:19.030Z,10.10
2022-09-16T08:17:18.944Z,10.20
2022-09-16T08:18:18.940Z,10.20
2022-09-16T08:19:18.919Z,10.20
2022-09-16T08:20:18.928Z,9.90
2022-09-16T08:21:18.903Z,9.90
2022-09-16T08:22:18.883Z,9.70
2022-09-16T08:23:18.861Z,9.70
2022-09-16T08:24:18.851Z,9.40
2022-09-16T08:25:18.846Z,9.60
2022-09-16T08:26:18.839Z,9.60
2022-09-16T08:27:18.811Z,9.20
2022-09-16T08:28:18.799Z,9.30
2022-09-16T08:29:18.958Z,9.40
2022-09-16T08:30:18.762Z,9.70
2022-09-16T08:31:18.822Z,9.60
2022-09-16T08:32:18.754Z,9.50
2022-09-16T08:33:18.743Z,9.30
2022-09-16T08:34:18.738Z,9.30
2022-09-16T08:35:18.715Z,9.60
2022-09-16T08:36:18.693Z,8.90
2022-09-16T08:37:18.703Z,9.30
2022-09-16T08:38:18.674Z,9.30
2022-09-16T08:39:18.652Z,9.90
2022-09-16T08:40:18.768Z,9.60
2022-09-16T08:41:18.632Z,9.50
2022-09-16T08:42:20.907Z,9.20
2022-09-16T08:43:18.593Z,9.50
2022-09-16T08:44:18.572Z,9.30
2022-09-16T08:45:18.573Z,9.40
2022-09-16T08:46:18.573Z,9.30
2022-09-16T08:47:18.544Z,8.80
2022-09-16T08:48:18.554Z,9.20
2022-09-16T08:49:18.555Z,9.50
2022-09-16T08:50:18.543Z,9.40
2022-09-16T08:51:18.531Z,8.90
2022-09-16T08:52:18.512Z,9.10
2022-09-16T08:53:18.525Z,9.50
2022-09-16T08:54:18.482Z,9.10
2022-09-16T08:55:18.461Z,9.20
2022-09-16T08:56:18.452Z,9.30
2022-09-16T08:57:18.439Z,9.20
2022-09-16T08:58:18.432Z,9.20
2022-09-16T08:59:18.462Z,8.80
2022-09-16T09:00:18.412Z,8.80
2022-09-16T09:01:18.503Z,8.80
2022-09-16T09:02:18.902Z,9.00
2022-09-16T09:03:18.351Z,8.80
2022-09-16T09:04:18.365Z,8.90
2022-09-16T09:05:18.332Z,8.80
2022-09-16T09:06:18.323Z,9.20
2022-09-16T09:07:18.302Z,8.80
2022-09-16T09:08:18.319Z,8.40
2022-09-16T09:09:18.282Z,8.90
2022-09-16T09:10:18.294Z,9.20
2022-09-16T09:11:18.255Z,9.00
2022-09-16T09:12:19.277Z,8.70
2022-09-16T09:13:20.119Z,9.00
2022-09-16T09:14:18.244Z,8.70
2022-09-16T09:15:18.204Z,8.80
2022-09-16T09:16:18.285Z,8.80
2022-09-16T09:17:18.185Z,8.70
2022-09-16T09:18:18.175Z,8.50
2022-09-16T09:19:18.145Z,8.70
2022-09-16T09:20:18.143Z,8.40
2022-09-16T09:21:18.118Z,9.10
2022-09-16T09:22:18.112Z,8.60
2022-09-16T09:23:18.095Z,9.10
2022-09-16T09:24:18.124Z,9.30
2022-09-16T09:25:18.085Z,8.60
2022-09-16T09:26:18.054Z,8.60
2022-09-16T09:27:18.095Z,8.80
2022-09-16T09:28:18.036Z,8.80
2022-09-16T09:29:18.015Z,9.40
2022-09-16T09:30:18.059Z,9.00
2022-09-16T09:31:18.042Z,8.70
2022-09-16T09:32:18.019Z,8.60
2022-09-16T09:33:44.496Z,9.00
2022-09-16T09:34:18.956Z,9.10
2022-09-16T09:35:17.934Z,8.70
2022-09-16T09:36:17.984Z,8.60
2022-09-16T09:37:17.916Z,9.40
2022-09-16T09:38:17.997Z,8.80
2022-09-16T09:39:17.875Z,8.00
2022-09-16T09:40:17.974Z,8.20
2022-09-16T09:41:17.864Z,8.40
2022-09-16T09:42:17.854Z,8.00
2022-09-16T09:43:17.828Z,7.80
2022-09-16T09:44:17.925Z,8.30
2022-09-16T09:45:17.809Z,8.50
2022-09-16T09:46:17.828Z,7.90
2022-09-16T09:47:17.780Z,8.10
2022-09-16T09:48:17.767Z,7.90
2022-09-16T09:49:17.758Z,8.70
2022-09-16T09:50:17.818Z,8.20
2022-09-16T09:51:17.727Z,8.10
2022-09-16T09:52:17.716Z,8.10
2022-09-16T09:53:17.695Z,8.30
2022-09-16T09:54:17.706Z,7.80
2022-09-16T09:55:17.725Z,7.50
2022-09-16T09:56:17.658Z,7.60
2022-09-16T09:57:17.646Z,7.30
2022-09-16T09:58:17.665Z,7.80
2022-09-16T09:59:17.639Z,7.30
2022-09-16T10:00:17.686Z,7.50
2022-09-16T10:01:17.643Z,7.30
2022-09-16T10:02:17.716Z,7.50
2022-09-16T10:03:17.566Z,7.20
2022-09-16T10:04:17.563Z,6.90
2022-09-16T10:05:17.558Z,7.30
2022-09-16T10:06:17.527Z,7.30
2022-09-16T10:07:17.520Z,7.00
2022-09-16T10:08:17.549Z,7.70
2022-09-16T10:09:17.496Z,7.20
2022-09-16T10:10:17.598Z,7.40
2022-09-16T10:11:17.481Z,7.50
2022-09-16T10:12:17.468Z,7.70
2022-09-16T10:13:17.452Z,7.50
2022-09-16T10:14:17.438Z,8.20
2022-09-16T10:15:17.409Z,7.40
2022-09-16T10:16:17.486Z,7.40
2022-09-16T10:17:17.378Z,7.40
2022-09-16T10:18:17.378Z,7.30
2022-09-16T10:19:17.358Z,7.60
2022-09-16T10:20:17.349Z,7.40
2022-09-16T10:21:17.391Z,7.20
2022-09-16T10:22:17.349Z,7.30
2022-09-16T10:23:17.337Z,7.40
2022-09-16T10:24:17.312Z,7.00
2022-09-16T10:25:17.292Z,7.00
2022-09-16T10:26:17.280Z,7.10
2022-09-16T10:27:17.260Z,7.30
2022-09-16T10:28:17.271Z,7.20
2022-09-16T10:29:17.256Z,7.10
2022-09-16T10:30:17.429Z,7.40
2022-09-16T10:31:17.221Z,7.10
2022-09-16T10:32:17.190Z,7.30
2022-09-16T10:33:17.180Z,7.30
2022-09-16T10:34:17.180Z,7.30
2022-09-16T10:35:17.150Z,7.60
2022-09-16T10:36:17.151Z,7.30
2022-09-16T10:37:17.130Z,7.20
2022-09-16T10:38:17.120Z,7.00
2022-09-16T10:39:17.122Z,6.90
2022-09-16T10:40:17.302Z,7.30
2022-09-16T10:41:17.083Z,7.30
2022-09-16T10:42:17.072Z,6.80
2022-09-16T10:43:17.053Z,6.30
2022-09-16T10:44:17.642Z,6.30
2022-09-16T10:45:17.052Z,6.50
2022-09-16T10:46:17.076Z,7.00
2022-09-16T10:47:17.011Z,6.50
2022-09-16T10:48:16.992Z,6.50
2022-09-16T10:49:16.997Z,7.10
2022-09-16T10:50:16.982Z,7.10
2022-09-16T10:51:16.991Z,6.90
2022-09-16T10:52:16.963Z,6.90
2022-09-16T10:53:16.923Z,7.00
2022-09-16T10:54:16.913Z,7.10
2022-09-16T10:55:16.922Z,6.90
2022-09-16T10:56:16.908Z,6.90
2022-09-16T10:57:16.875Z,7.00
2022-09-16T10:58:16.866Z,6.90
2022-09-16T10:59:16.845Z,7.00
2022-09-16T11:00:16.865Z,7.10
2022-09-16T11:01:18.328Z,7.20
2022-09-16T11:02:17.390Z,7.30
2022-09-16T11:03:16.793Z,7.30
2022-09-16T11:04:17.464Z,6.80
2022-09-16T11:05:16.764Z,7.20
2022-09-16T11:06:16.812Z,6.90
2022-09-16T11:07:16.989Z,6.50
2022-09-16T11:08:16.785Z,7.00
2022-09-16T11:09:16.725Z,6.80
2022-09-16T11:10:16.717Z,7.00
2022-09-16T11:11:16.697Z,7.00
2022-09-16T11:12:16.694Z,7.30
2022-09-16T11:13:16.685Z,6.90
2022-09-16T11:14:16.656Z,6.90
2022-09-16T11:15:16.657Z,6.80
2022-09-16T11:16:16.728Z,6.50
2022-09-16T11:17:16.640Z,6.50
2022-09-16T11:18:16.633Z,6.80
2022-09-16T11:19:16.605Z,6.90
2022-09-16T11:20:16.587Z,7.10
2022-09-16T11:21:16.577Z,6.80
2022-09-16T11:22:16.565Z,6.80
2022-09-16T11:23:16.547Z,7.00
2022-09-16T11:24:16.547Z,6.60
2022-09-16T11:25:16.518Z,6.80
2022-09-16T11:26:16.507Z,6.20
2022-09-16T11:27:16.496Z,6.40
2022-09-16T11:28:16.485Z,6.30
2022-09-16T11:29:16.482Z,6.70
2022-09-16T11:30:16.463Z,6.40
2022-09-16T11:31:16.483Z,6.10
2022-09-16T11:32:16.437Z,6.10
2022-09-16T11:33:17.100Z,5.90
2022-09-16T11:34:16.467Z,5.80
2022-09-16T11:35:16.455Z,5.70
2022-09-16T11:36:16.418Z,5.50
2022-09-16T11:37:16.368Z,5.40
2022-09-16T11:38:16.361Z,5.90
2022-09-16T11:39:16.349Z,5.80
2022-09-16T11:40:16.377Z,5.70
2022-09-16T11:41:16.317Z,5.80
2022-09-16T11:42:16.311Z,5.80
2022-09-16T11:43:16.277Z,5.70
2022-09-16T11:44:16.298Z,6.10
2022-09-16T11:45:16.335Z,6.20
2022-09-16T11:46:16.271Z,6.30
2022-09-16T11:47:16.260Z,6.30
2022-09-16T11:48:16.227Z,6.50
2022-09-16T11:49:16.209Z,6.40
2022-09-16T11:50:16.227Z,6.40
2022-09-16T11:51:16.190Z,6.40
2022-09-16T11:52:16.190Z,6.90
2022-09-16T11:53:17.520Z,6.30
2022-09-16T11:54:16.188Z,6.30
2022-09-16T11:55:16.141Z,6.20
2022-09-16T11:56:16.131Z,6.40
2022-09-16T11:57:16.111Z,6.40
2022-09-16T11:58:16.111Z,6.20
2022-09-16T11:59:16.069Z,6.40
2022-09-16T12:00:16.061Z,6.40
2022-09-16T12:01:16.048Z,6.40
2022-09-16T12:02:16.081Z,6.80
2022-09-16T12:03:16.066Z,7.00
2022-09-16T12:04:16.040Z,7.00
2022-09-16T12:05:16.002Z,6.80
2022-09-16T12:06:16.010Z,6.80
2022-09-16T12:07:16.010Z,7.00
2022-09-16T12:08:16.044Z,6.30
2022-09-16T12:09:15.953Z,6.50
2022-09-16T12:10:15.942Z,6.50
2022-09-16T12:11:15.932Z,6.50
2022-09-16T12:12:15.922Z,6.70
2022-09-16T12:13:15.891Z,6.50
2022-09-16T12:14:15.900Z,6.30
2022-09-16T12:15:15.873Z,6.40
2022-09-16T12:16:15.907Z,6.60
2022-09-16T12:17:15.856Z,6.40
2022-09-16T12:18:15.834Z,6.10
2022-09-16T12:19:15.829Z,6.20
2022-09-16T12:20:15.823Z,6.70
2022-09-16T12:21:15.795Z,6.80
2022-09-16T12:22:15.784Z,6.40
2022-09-16T12:23:15.763Z,6.60
2022-09-16T12:24:15.762Z,6.20
2022-09-16T12:25:15.752Z,7.00
2022-09-16T12:26:15.747Z,6.80
2022-09-16T12:27:15.713Z,6.50
2022-09-16T12:28:15.703Z,6.10
2022-09-16T12:29:15.694Z,5.90
2022-09-16T12:30:15.718Z,6.30
2022-09-16T12:31:15.728Z,5.90
2022-09-16T12:32:15.659Z,6.20
2022-09-16T12:33:15.632Z,6.30
2022-09-16T12:34:15.627Z,6.80
2022-09-16T12:35:15.618Z,6.50
2022-09-16T12:36:19.001Z,6.30
2022-09-16T12:37:16.578Z,6.10
2022-09-16T12:38:15.566Z,6.20
2022-09-16T12:39:15.554Z,5.90
2022-09-16T12:40:15.595Z,6.10
2022-09-16T12:41:15.536Z,6.20
2022-09-16T12:42:15.518Z,5.90
2022-09-16T12:43:22.517Z,5.90
2022-09-16T12:44:33.550Z,5.80
2022-09-16T12:45:18.254Z,5.40
2022-09-16T12:46:15.548Z,5.10
2022-09-16T12:47:15.480Z,5.30
2022-09-16T12:48:15.460Z,5.50
2022-09-16T12:49:15.421Z,5.40
2022-09-16T12:50:15.411Z,5.70
2022-09-16T12:51:15.410Z,5.70
2022-09-16T12:52:15.455Z,5.70
2022-09-16T12:53:15.359Z,5.30
2022-09-16T12:54:15.375Z,5.70
2022-09-16T12:55:15.330Z,5.10
2022-09-16T12:56:15.339Z,5.30
2022-09-16T12:57:15.322Z,5.30
2022-09-16T12:58:15.302Z,4.80
2022-09-16T12:59:15.293Z,4.80
2022-09-16T13:00:15.281Z,4.80
2022-09-16T13:01:15.299Z,4.10
2022-09-16T13:02:15.465Z,4.20
2022-09-16T13:03:15.253Z,4.10
2022-09-16T13:04:15.273Z,4.70